Accueil
METAR-TAF:

METAR-TAF

Aéroports :

Aéroport de Karlsruhe-Baden-Baden

Baden-Baden, Allemagne

latitude: 48-46-43N, longitude: 008-04-47E, altitude: 124 m

Observation

Le bulletin a été fait il y a 35 minutes, à 01:50 UTC
Vent 4 kt de sud/sud-ouest
Température 17°C
Humidité 82%
Pression 1022 hPa
Visibilité 10 km ou plus

METAR: EDSB 190150Z AUTO 21004KT 9999 // BKN070/// BKN096/// 17/14 Q1022

Heure: 04:25 (02:25 UTC)

Prévision

Le bulletin a été fait il y a 9 heures et 25 minutes, à 17:00 UTC
Prévision valable du 18 à 18 UTC au 19 à 18 UTC
Vent 3 kt de direction variable
Visibilité 10 km ou plus
pas de nuages en-dessous de 1500 mètres et pas de cumulonimbus.
Temporairement
du 19 à 11 UTC au 19 à 17 UTC
Vent 5 kt de nord-ouest

TAF: EDSB 181700Z 1818/1918 VRB03KT CAVOK TEMPO 1911/1917 31005KT

Observations et prévisions météorologiques de plus de 4000 aéroports (messages METAR et TAF).

Les stations disponibles sont représentées par des disques jaunes et rouges sur la carte.

Passer la souris dessus pour voir le nom de la station.

Cliquer dessus pour voir les observations et prévisions météorologiques.

Pour changer de carte: cliquez sur les boutons verts avec une croix noire pour zoomer, sur le bouton vert avec un tiret pour effectuer un zoom arrière, ou sur les flèches vertes pour les cartes adjacentes.


METAR-TAF: